Time;durP1;ratioP1;P1;durP2;ratioP2;P2;SDS_P1;SDS_P2;PMS_P1;PMS_P2;Temp;Humidity;BMP_temperature;BMP_pressure;BME280_temperature;BME280_humidity;BME280_pressure;Samples;Min_cycle;Max_cycle;Signal;HPM_P1;HPM_P2
2023/12/29 00:02:08;;;;;;;10.55;6.88;;;;;;;;;;5073943;28;20028;-70
2023/12/29 00:04:33;;;;;;;9.07;6.35;;;;;;;;;;5073566;28;20093;-70
2023/12/29 00:06:58;;;;;;;11.48;7.38;;;;;;;;;;5055662;28;20020;-70
2023/12/29 00:09:24;;;;;;;8.65;6.45;;;;;;;;;;5074138;28;20029;-70
2023/12/29 00:11:50;;;;;;;10.30;6.38;;;;;;;;;;5073616;28;20461;-70
2023/12/29 00:14:15;;;;;;;8.80;6.55;;;;;;;;;;5073525;28;20044;-68
2023/12/29 00:16:41;;;;;;;10.35;5.53;;;;;;;;;;5055603;28;20424;-68
2023/12/29 00:19:06;;;;;;;8.05;5.43;;;;;;;;;;5073522;28;20056;-69
2023/12/29 00:21:32;;;;;;;10.23;6.05;;;;;;;;;;5073763;28;20063;-68
2023/12/29 00:23:57;;;;;;;5.78;4.80;;;;;;;;;;5073648;28;20105;-68
2023/12/29 00:26:22;;;;;;;8.85;5.60;;;;;;;;;;5073677;28;20067;-68
2023/12/29 00:28:53;;;;;;;6.85;5.10;;;;;;;;;;5055730;28;20041;-71
2023/12/29 00:31:19;;;;;;;7.53;5.55;;;;;;;;;;5073310;28;20029;-71
2023/12/29 00:33:44;;;;;;;8.45;5.72;;;;;;;;;;5072204;28;20111;-71
2023/12/29 00:36:16;;;;;;;7.57;5.47;;;;;;;;;;5073505;28;20041;-71
2023/12/29 00:38:42;;;;;;;7.68;5.63;;;;;;;;;;5055798;28;20025;-72
2023/12/29 00:41:07;;;;;;;6.50;5.03;;;;;;;;;;5073618;28;20029;-71
2023/12/29 00:43:32;;;;;;;6.43;4.78;;;;;;;;;;5073154;28;20088;-71
2023/12/29 00:45:58;;;;;;;8.35;5.25;;;;;;;;;;5055225;28;20081;-71
2023/12/29 00:48:24;;;;;;;8.23;5.15;;;;;;;;;;5073717;28;20029;-70
2023/12/29 00:50:49;;;;;;;6.50;5.50;;;;;;;;;;5073215;28;20050;-70
2023/12/29 00:53:14;;;;;;;6.18;4.95;;;;;;;;;;5073132;28;20017;-71
2023/12/29 00:55:40;;;;;;;6.82;5.20;;;;;;;;;;5073127;28;20036;-70
2023/12/29 00:58:05;;;;;;;5.63;4.55;;;;;;;;;;5073388;28;20054;-70
2023/12/29 01:00:31;;;;;;;6.47;5.53;;;;;;;;;;5073121;28;20078;-70
2023/12/29 01:02:56;;;;;;;8.25;4.65;;;;;;;;;;5073841;28;20074;-71
2023/12/29 01:05:22;;;;;;;5.72;4.30;;;;;;;;;;5058867;28;20029;-71
2023/12/29 01:07:47;;;;;;;5.55;4.90;;;;;;;;;;5076744;28;20028;-70
2023/12/29 01:10:14;;;;;;;9.52;5.35;;;;;;;;;;5059319;28;20028;-71
2023/12/29 01:12:39;;;;;;;6.82;5.07;;;;;;;;;;5058554;28;20037;-71
2023/12/29 01:15:05;;;;;;;5.88;4.68;;;;;;;;;;5058755;28;20028;-70
2023/12/29 01:17:30;;;;;;;7.22;5.15;;;;;;;;;;5076908;28;20035;-71
2023/12/29 01:19:55;;;;;;;6.95;4.28;;;;;;;;;;5076548;28;20040;-70
2023/12/29 01:22:21;;;;;;;7.20;4.72;;;;;;;;;;5076809;28;20078;-69
2023/12/29 01:24:47;;;;;;;6.60;4.85;;;;;;;;;;5076380;28;20028;-70
2023/12/29 01:27:12;;;;;;;6.30;4.97;;;;;;;;;;5076422;28;20034;-69
2023/12/29 01:29:39;;;;;;;4.60;4.00;;;;;;;;;;5058528;28;20016;-69
2023/12/29 01:32:07;;;;;;;5.95;5.00;;;;;;;;;;5076341;28;20025;-70
2023/12/29 01:34:33;;;;;;;7.00;4.65;;;;;;;;;;5060201;23;20103;-69
2023/12/29 01:36:59;;;;;;;6.30;4.93;;;;;;;;;;5056286;28;20104;-70
2023/12/29 01:39:24;;;;;;;7.15;5.68;;;;;;;;;;5038462;28;20025;-69
2023/12/29 01:41:50;;;;;;;7.13;5.50;;;;;;;;;;5056193;28;20021;-69
2023/12/29 01:44:22;;;;;;;6.63;5.45;;;;;;;;;;5056036;28;20427;-71
2023/12/29 01:46:48;;;;;;;6.72;5.07;;;;;;;;;;5056612;28;20040;-72
2023/12/29 01:49:15;;;;;;;6.38;4.85;;;;;;;;;;5038150;28;20423;-72
2023/12/29 01:51:41;;;;;;;8.10;5.40;;;;;;;;;;5039000;28;20422;-69
2023/12/29 01:54:07;;;;;;;5.90;4.70;;;;;;;;;;5037972;28;20087;-69
2023/12/29 01:56:32;;;;;;;6.32;4.57;;;;;;;;;;5038731;28;20045;-69
2023/12/29 01:58:58;;;;;;;6.32;4.35;;;;;;;;;;5022054;28;20033;-70
2023/12/29 02:01:23;;;;;;;5.80;4.95;;;;;;;;;;5037931;28;20068;-69
2023/12/29 02:03:49;;;;;;;6.38;4.80;;;;;;;;;;5021412;28;20037;-73
2023/12/29 02:06:16;;;;;;;6.13;4.75;;;;;;;;;;5055716;28;20028;-70
2023/12/29 02:08:41;;;;;;;6.70;4.82;;;;;;;;;;5055994;28;20478;-70
2023/12/29 02:11:07;;;;;;;7.38;5.50;;;;;;;;;;5037700;28;20059;-70
2023/12/29 02:13:33;;;;;;;4.38;3.97;;;;;;;;;;5055605;28;20100;-70
2023/12/29 02:16:02;;;;;;;7.78;5.22;;;;;;;;;;5037499;28;20127;-70
2023/12/29 02:18:29;;;;;;;6.93;5.43;;;;;;;;;;5056397;22;20394;-66
2023/12/29 02:20:55;;;;;;;7.20;5.68;;;;;;;;;;5098720;22;20056;-70
2023/12/29 02:23:20;;;;;;;6.90;5.90;;;;;;;;;;5057340;28;20126;-70
2023/12/29 02:25:45;;;;;;;7.28;5.05;;;;;;;;;;5057319;28;20029;-69
2023/12/29 02:28:17;;;;;;;5.07;4.57;;;;;;;;;;5057353;28;20024;-70
2023/12/29 02:30:49;;;;;;;7.28;6.05;;;;;;;;;;5075500;28;20028;-71
2023/12/29 02:33:16;;;;;;;6.25;5.55;;;;;;;;;;5075494;28;20506;-70
2023/12/29 02:35:42;;;;;;;6.30;5.65;;;;;;;;;;5075154;28;20142;-71
2023/12/29 02:38:08;;;;;;;7.00;5.88;;;;;;;;;;5075053;28;20032;-71
2023/12/29 02:40:33;;;;;;;7.38;5.80;;;;;;;;;;5075073;28;20112;-70
2023/12/29 02:42:59;;;;;;;6.65;5.70;;;;;;;;;;5075250;28;20024;-70
2023/12/29 02:45:25;;;;;;;8.15;5.88;;;;;;;;;;5056976;28;20440;-70
2023/12/29 02:47:51;;;;;;;6.18;5.60;;;;;;;;;;5075158;28;20074;-70
2023/12/29 02:50:16;;;;;;;5.53;4.93;;;;;;;;;;5057052;28;20107;-70
2023/12/29 02:52:42;;;;;;;6.88;5.22;;;;;;;;;;5074796;28;20031;-71
2023/12/29 02:55:07;;;;;;;7.07;5.55;;;;;;;;;;5056846;28;20067;-71
2023/12/29 02:57:33;;;;;;;6.53;5.55;;;;;;;;;;5040186;28;20028;-70
2023/12/29 02:59:58;;;;;;;6.00;5.35;;;;;;;;;;5056685;28;20029;-70
2023/12/29 03:02:24;;;;;;;6.45;5.50;;;;;;;;;;5074643;28;20028;-70
2023/12/29 03:04:50;;;;;;;6.72;5.10;;;;;;;;;;5056628;28;20021;-69
2023/12/29 03:07:16;;;;;;;6.38;5.55;;;;;;;;;;5056629;28;20024;-65
2023/12/29 03:09:42;;;;;;;7.22;5.68;;;;;;;;;;5088052;22;20109;-70
2023/12/29 03:12:07;;;;;;;6.75;5.45;;;;;;;;;;5056892;28;20502;-70
2023/12/29 03:14:33;;;;;;;6.28;5.20;;;;;;;;;;5056900;28;20047;-71
2023/12/29 03:16:58;;;;;;;7.03;5.72;;;;;;;;;;5074607;28;20033;-71
2023/12/29 03:19:24;;;;;;;6.95;5.85;;;;;;;;;;5074585;28;20020;-71
2023/12/29 03:21:49;;;;;;;6.75;5.57;;;;;;;;;;5056439;28;20119;-72
2023/12/29 03:24:14;;;;;;;6.22;5.45;;;;;;;;;;5056269;28;20492;-72
2023/12/29 03:26:40;;;;;;;8.80;5.90;;;;;;;;;;5039161;28;20074;-72
2023/12/29 03:29:06;;;;;;;5.50;5.00;;;;;;;;;;5056153;28;20031;-72
2023/12/29 03:31:31;;;;;;;5.57;5.07;;;;;;;;;;5074054;28;20111;-72
2023/12/29 03:33:57;;;;;;;7.00;5.57;;;;;;;;;;5074061;28;20074;-72
2023/12/29 03:36:22;;;;;;;6.18;5.13;;;;;;;;;;5074116;28;20025;-72
2023/12/29 03:38:48;;;;;;;6.80;5.20;;;;;;;;;;5056120;28;20417;-72
2023/12/29 03:41:13;;;;;;;6.43;4.97;;;;;;;;;;5074335;28;20431;-72
2023/12/29 03:43:39;;;;;;;7.22;5.60;;;;;;;;;;5039285;28;20127;-73
2023/12/29 03:46:15;;;;;;;6.55;5.00;;;;;;;;;;5055954;28;20463;-72
2023/12/29 03:48:40;;;;;;;6.95;5.55;;;;;;;;;;5055886;28;20036;-72
2023/12/29 03:51:06;;;;;;;7.55;5.38;;;;;;;;;;5073815;28;20029;-73
2023/12/29 03:53:31;;;;;;;7.80;5.63;;;;;;;;;;5073818;28;20460;-72
2023/12/29 03:55:56;;;;;;;10.95;7.25;;;;;;;;;;5056665;28;20054;-72
2023/12/29 03:58:21;;;;;;;10.38;7.72;;;;;;;;;;5072475;28;20032;-72
2023/12/29 04:00:47;;;;;;;11.55;7.53;;;;;;;;;;5073705;28;20027;-70
2023/12/29 04:03:12;;;;;;;11.07;7.40;;;;;;;;;;5072439;28;20032;-70
2023/12/29 04:05:37;;;;;;;9.10;6.82;;;;;;;;;;5074118;28;20036;-70
2023/12/29 04:08:03;;;;;;;8.82;6.47;;;;;;;;;;5055849;28;20020;-70
2023/12/29 04:10:29;;;;;;;8.40;6.18;;;;;;;;;;5055641;28;20493;-71
2023/12/29 04:12:54;;;;;;;10.05;6.68;;;;;;;;;;5073884;28;20025;-70
2023/12/29 04:15:20;;;;;;;13.13;7.53;;;;;;;;;;5073564;28;20033;-70
2023/12/29 04:17:45;;;;;;;59.50;18.33;;;;;;;;;;5055772;28;20024;-70
2023/12/29 04:20:10;;;;;;;57.05;19.27;;;;;;;;;;5056125;28;20029;-71
2023/12/29 04:22:37;;;;;;;27.83;11.98;;;;;;;;;;5073393;28;20079;-70
2023/12/29 04:25:02;;;;;;;36.65;14.90;;;;;;;;;;5073365;28;20024;-71
2023/12/29 04:27:28;;;;;;;36.05;14.18;;;;;;;;;;5073799;28;20032;-71
2023/12/29 04:29:53;;;;;;;25.42;11.57;;;;;;;;;;5038932;28;20024;-71
2023/12/29 04:32:18;;;;;;;12.57;7.53;;;;;;;;;;5055449;28;20020;-70
2023/12/29 04:34:44;;;;;;;8.00;5.88;;;;;;;;;;5073401;28;20360;-73
2023/12/29 04:37:09;;;;;;;6.75;5.30;;;;;;;;;;5073341;28;20087;-72
2023/12/29 04:39:35;;;;;;;5.38;4.68;;;;;;;;;;5058390;28;20067;-73
2023/12/29 04:42:00;;;;;;;6.20;5.15;;;;;;;;;;5059372;28;20470;-73
2023/12/29 04:44:26;;;;;;;7.43;5.47;;;;;;;;;;5077215;28;20031;-73
2023/12/29 04:46:51;;;;;;;6.95;5.90;;;;;;;;;;5059321;28;20546;-72
2023/12/29 04:49:17;;;;;;;7.00;5.35;;;;;;;;;;5077735;28;20493;-73
2023/12/29 04:51:42;;;;;;;12.55;6.35;;;;;;;;;;5077290;28;20067;-72
2023/12/29 04:54:07;;;;;;;13.32;6.85;;;;;;;;;;5059016;28;20028;-72
2023/12/29 04:56:34;;;;;;;17.85;8.00;;;;;;;;;;5076577;28;20071;-72
2023/12/29 04:59:00;;;;;;;9.63;6.22;;;;;;;;;;5076111;28;20021;-72
2023/12/29 05:01:25;;;;;;;6.25;5.40;;;;;;;;;;5076678;28;20028;-72
2023/12/29 05:03:50;;;;;;;4.95;4.55;;;;;;;;;;5076569;28;20485;-72
2023/12/29 05:06:16;;;;;;;5.70;4.80;;;;;;;;;;5076296;28;20381;-72
2023/12/29 05:08:42;;;;;;;5.40;4.90;;;;;;;;;;5074792;28;20041;-72
2023/12/29 05:11:07;;;;;;;4.90;4.50;;;;;;;;;;5074908;28;20025;-72
2023/12/29 05:13:33;;;;;;;5.82;4.88;;;;;;;;;;5074840;28;20057;-72
2023/12/29 05:15:58;;;;;;;5.30;4.80;;;;;;;;;;5074756;28;20466;-72
2023/12/29 05:18:23;;;;;;;5.20;4.68;;;;;;;;;;5074739;28;20098;-72
2023/12/29 05:20:49;;;;;;;5.35;4.85;;;;;;;;;;5074888;28;20024;-72
2023/12/29 05:23:14;;;;;;;4.88;4.45;;;;;;;;;;5074918;28;20478;-72
2023/12/29 05:25:39;;;;;;;5.93;4.40;;;;;;;;;;5075257;28;20032;-72
2023/12/29 05:28:05;;;;;;;5.22;4.63;;;;;;;;;;5057043;28;20023;-72
2023/12/29 05:30:32;;;;;;;4.82;4.40;;;;;;;;;;5075009;28;20413;-72
2023/12/29 05:35:27;;;;;;;6.00;4.00;;;;;;;;;;5091575;22;20045;-64
2023/12/29 05:37:52;;;;;;;4.90;4.47;;;;;;;;;;5076440;28;20024;-71
2023/12/29 05:40:18;;;;;;;3.63;3.20;;;;;;;;;;5074967;28;20518;-71
2023/12/29 05:42:43;;;;;;;3.47;3.20;;;;;;;;;;5076773;28;20024;-71
2023/12/29 05:45:09;;;;;;;3.60;3.30;;;;;;;;;;5076085;28;20062;-71
2023/12/29 05:47:34;;;;;;;3.92;3.30;;;;;;;;;;5076376;28;20380;-71
2023/12/29 05:49:59;;;;;;;4.07;3.60;;;;;;;;;;5057675;28;20017;-71
2023/12/29 05:52:25;;;;;;;3.38;3.10;;;;;;;;;;5076017;28;20077;-71
2023/12/29 05:54:50;;;;;;;3.55;2.97;;;;;;;;;;5076529;28;20078;-71
2023/12/29 05:57:16;;;;;;;3.03;2.83;;;;;;;;;;5076237;28;20020;-71
2023/12/29 05:59:41;;;;;;;2.90;2.63;;;;;;;;;;5076480;28;20029;-71
2023/12/29 06:02:06;;;;;;;3.90;3.03;;;;;;;;;;5076424;28;20032;-71
2023/12/29 06:04:32;;;;;;;3.10;2.80;;;;;;;;;;5075722;28;20033;-71
2023/12/29 06:06:57;;;;;;;3.25;2.72;;;;;;;;;;5058408;28;20029;-71
2023/12/29 06:09:22;;;;;;;2.88;2.55;;;;;;;;;;5075711;28;20416;-71
2023/12/29 06:11:48;;;;;;;2.53;2.33;;;;;;;;;;5075950;28;20049;-71
2023/12/29 06:14:13;;;;;;;3.00;2.50;;;;;;;;;;5058077;28;20024;-71
2023/12/29 06:16:40;;;;;;;3.22;2.60;;;;;;;;;;5074671;28;20036;-71
2023/12/29 06:19:09;;;;;;;2.58;2.30;;;;;;;;;;5075807;28;20450;-71
2023/12/29 06:21:40;;;;;;;2.58;2.38;;;;;;;;;;5075739;28;20117;-71
2023/12/29 06:24:09;;;;;;;3.17;2.95;;;;;;;;;;5075947;28;20036;-71
2023/12/29 06:26:35;;;;;;;4.18;3.13;;;;;;;;;;5074515;28;20368;-71
2023/12/29 06:29:00;;;;;;;2.88;2.60;;;;;;;;;;5075620;28;20035;-71
2023/12/29 06:31:26;;;;;;;3.28;2.97;;;;;;;;;;5074999;28;20417;-71
2023/12/29 06:33:51;;;;;;;2.75;2.55;;;;;;;;;;5075798;28;20063;-71
2023/12/29 06:36:17;;;;;;;3.00;2.80;;;;;;;;;;5075179;28;20071;-71
2023/12/29 06:38:45;;;;;;;2.63;2.42;;;;;;;;;;5040533;28;20066;-71
2023/12/29 06:41:11;;;;;;;3.95;3.15;;;;;;;;;;5075081;28;20036;-71
2023/12/29 06:43:38;;;;;;;3.22;2.95;;;;;;;;;;5075257;28;20446;-71
2023/12/29 06:46:04;;;;;;;3.90;2.95;;;;;;;;;;5074905;28;20024;-71
2023/12/29 06:48:29;;;;;;;3.28;2.72;;;;;;;;;;5057123;28;20067;-71
2023/12/29 06:50:56;;;;;;;2.83;2.40;;;;;;;;;;5057050;28;20028;-71
2023/12/29 06:53:22;;;;;;;3.88;2.88;;;;;;;;;;5075174;28;20486;-71
2023/12/29 06:55:48;;;;;;;2.97;2.42;;;;;;;;;;5075030;28;20029;-71
2023/12/29 06:58:13;;;;;;;3.20;2.88;;;;;;;;;;5075064;28;20105;-71
2023/12/29 07:00:38;;;;;;;2.45;2.25;;;;;;;;;;5073990;28;20620;-71
2023/12/29 07:03:04;;;;;;;2.72;2.47;;;;;;;;;;5056617;28;20028;-64
2023/12/29 07:08:42;;;;;;;3.67;2.15;;;;;;;;;;5075455;22;20127;-64
2023/12/29 07:11:11;;;;;;;2.17;1.98;;;;;;;;;;5088443;22;20143;-71
2023/12/29 07:13:37;;;;;;;2.50;2.28;;;;;;;;;;5056882;28;20055;-71
2023/12/29 07:16:02;;;;;;;1.95;1.75;;;;;;;;;;5074664;28;20060;-71
2023/12/29 07:18:28;;;;;;;2.22;1.85;;;;;;;;;;5073689;28;20040;-71
2023/12/29 07:20:53;;;;;;;2.95;2.08;;;;;;;;;;5074325;28;20533;-71
2023/12/29 07:23:18;;;;;;;1.95;1.75;;;;;;;;;;5074272;28;20107;-71
2023/12/29 07:25:44;;;;;;;2.42;2.05;;;;;;;;;;5056290;28;20070;-71
2023/12/29 07:28:09;;;;;;;2.33;2.13;;;;;;;;;;5056890;28;20020;-71
2023/12/29 07:30:34;;;;;;;2.22;1.83;;;;;;;;;;5074397;28;20074;-71
2023/12/29 07:33:02;;;;;;;2.53;2.20;;;;;;;;;;5074313;28;20024;-71
2023/12/29 07:35:27;;;;;;;2.20;2.10;;;;;;;;;;5074316;28;20476;-71
2023/12/29 07:37:53;;;;;;;1.92;1.58;;;;;;;;;;5072751;28;20082;-71
2023/12/29 07:40:18;;;;;;;2.58;2.13;;;;;;;;;;5056388;28;20094;-71
2023/12/29 07:42:46;;;;;;;0.77;0.73;;;;;;;;;;5056089;28;20512;-71
2023/12/29 07:45:12;;;;;;;1.90;1.80;;;;;;;;;;5073821;28;20036;-71
2023/12/29 07:47:37;;;;;;;2.60;2.38;;;;;;;;;;5056096;28;20112;-71
2023/12/29 07:50:03;;;;;;;2.78;2.50;;;;;;;;;;5055978;28;20470;-71
2023/12/29 07:52:29;;;;;;;2.30;1.92;;;;;;;;;;5073454;28;20036;-71
2023/12/29 07:54:56;;;;;;;3.58;2.55;;;;;;;;;;5072464;28;20064;-71
2023/12/29 07:57:21;;;;;;;2.63;2.25;;;;;;;;;;5056187;28;20039;-71
2023/12/29 07:59:47;;;;;;;3.15;2.17;;;;;;;;;;5074050;28;20029;-71
2023/12/29 08:02:12;;;;;;;1.77;1.60;;;;;;;;;;5073753;28;20386;-71
2023/12/29 08:04:38;;;;;;;3.97;2.95;;;;;;;;;;5073889;28;20355;-71
2023/12/29 08:07:04;;;;;;;2.80;2.53;;;;;;;;;;5073907;28;20028;-71
2023/12/29 08:09:29;;;;;;;2.78;2.45;;;;;;;;;;5073490;28;20029;-71
2023/12/29 08:11:55;;;;;;;2.90;2.35;;;;;;;;;;5073935;28;20036;-71
2023/12/29 08:14:20;;;;;;;3.22;2.63;;;;;;;;;;5074095;28;20035;-71
2023/12/29 08:16:46;;;;;;;2.38;1.92;;;;;;;;;;5055595;28;20028;-71
2023/12/29 08:19:11;;;;;;;2.50;2.05;;;;;;;;;;5055991;28;20508;-71
2023/12/29 08:21:37;;;;;;;3.63;2.90;;;;;;;;;;5073503;28;20033;-71
2023/12/29 08:24:03;;;;;;;2.35;2.10;;;;;;;;;;5072166;28;20032;-71
2023/12/29 08:26:28;;;;;;;2.08;1.70;;;;;;;;;;5074048;28;20454;-71
2023/12/29 08:28:53;;;;;;;2.90;2.28;;;;;;;;;;5074006;28;20020;-71
2023/12/29 08:31:22;;;;;;;4.50;2.85;;;;;;;;;;5073420;28;20467;-71
2023/12/29 08:33:47;;;;;;;2.40;2.20;;;;;;;;;;5055462;28;20013;-71
2023/12/29 08:36:12;;;;;;;3.03;2.00;;;;;;;;;;5073420;28;20024;-71
2023/12/29 08:38:38;;;;;;;2.35;2.15;;;;;;;;;;5073693;28;20354;-71
2023/12/29 08:41:04;;;;;;;2.45;2.17;;;;;;;;;;5072229;28;20040;-71
2023/12/29 08:43:29;;;;;;;3.65;1.92;;;;;;;;;;5073610;28;20016;-71
2023/12/29 08:45:56;;;;;;;2.40;1.77;;;;;;;;;;5073252;28;20099;-71
2023/12/29 08:48:22;;;;;;;1.70;1.45;;;;;;;;;;5073537;28;20060;-71
2023/12/29 08:50:47;;;;;;;3.15;2.00;;;;;;;;;;5073575;28;20059;-71
2023/12/29 08:53:13;;;;;;;1.95;1.75;;;;;;;;;;5073258;28;20112;-71
2023/12/29 08:55:39;;;;;;;2.65;2.17;;;;;;;;;;5055644;28;20034;-71
2023/12/29 08:58:04;;;;;;;1.38;1.27;;;;;;;;;;5073757;28;20115;-71
2023/12/29 09:00:30;;;;;;;3.97;2.67;;;;;;;;;;5063556;22;20175;-71
2023/12/29 09:02:56;;;;;;;2.38;2.00;;;;;;;;;;5053212;28;20029;-64
2023/12/29 09:05:21;;;;;;;4.78;3.10;;;;;;;;;;5053274;28;20082;-64
2023/12/29 09:07:46;;;;;;;1.17;1.05;;;;;;;;;;5053292;28;20037;-64
2023/12/29 09:10:12;;;;;;;3.70;2.35;;;;;;;;;;5053325;28;20048;-64
2023/12/29 09:12:38;;;;;;;0.57;0.57;;;;;;;;;;5035563;28;20029;-64
2023/12/29 09:15:04;;;;;;;1.38;0.90;;;;;;;;;;5035565;28;20040;-64
2023/12/29 09:17:30;;;;;;;2.40;1.73;;;;;;;;;;5053242;28;20036;-64
2023/12/29 09:19:55;;;;;;;2.38;2.17;;;;;;;;;;5052904;28;20060;-64
2023/12/29 09:22:20;;;;;;;2.70;2.05;;;;;;;;;;5035180;28;20033;-64
2023/12/29 09:24:46;;;;;;;2.75;2.33;;;;;;;;;;5054297;28;20086;-64
2023/12/29 09:27:11;;;;;;;1.17;1.08;;;;;;;;;;5039181;28;20025;-64
2023/12/29 09:29:37;;;;;;;2.58;2.30;;;;;;;;;;5056491;28;20025;-64
2023/12/29 09:32:03;;;;;;;2.33;2.13;;;;;;;;;;5056334;28;20463;-65
2023/12/29 09:34:28;;;;;;;2.63;2.42;;;;;;;;;;5056643;28;20047;-65
2023/12/29 09:36:54;;;;;;;3.38;2.80;;;;;;;;;;5056330;28;20489;-65
2023/12/29 09:39:19;;;;;;;0.80;0.80;;;;;;;;;;5038537;28;20471;-65
2023/12/29 09:41:46;;;;;;;2.28;2.08;;;;;;;;;;5038417;28;20435;-65
2023/12/29 09:44:16;;;;;;;2.90;2.03;;;;;;;;;;5038341;28;20479;-65
2023/12/29 09:46:42;;;;;;;2.03;1.58;;;;;;;;;;5056447;28;20029;-65
2023/12/29 09:49:08;;;;;;;1.58;1.48;;;;;;;;;;5056366;28;20021;-65
2023/12/29 09:51:36;;;;;;;2.63;1.48;;;;;;;;;;5038160;28;20029;-65
2023/12/29 09:54:02;;;;;;;2.47;2.20;;;;;;;;;;5056304;28;20032;-65
2023/12/29 09:56:27;;;;;;;2.30;1.83;;;;;;;;;;5050349;23;20056;-65
2023/12/29 09:58:53;;;;;;;4.65;2.63;;;;;;;;;;5069490;22;20498;-72
2023/12/29 10:01:21;;;;;;;2.08;1.63;;;;;;;;;;5075929;28;20029;-72
2023/12/29 10:03:48;;;;;;;3.55;2.85;;;;;;;;;;5076104;28;20056;-72
2023/12/29 10:06:20;;;;;;;1.25;1.15;;;;;;;;;;5074035;22;20040;-66
2023/12/29 10:08:46;;;;;;;2.33;1.80;;;;;;;;;;5087386;22;20056;-72
2023/12/29 10:11:12;;;;;;;2.42;2.10;;;;;;;;;;5058389;22;20061;-72
2023/12/29 10:13:39;;;;;;;1.95;1.52;;;;;;;;;;5055915;28;20071;-72
2023/12/29 10:16:17;;;;;;;1.80;1.42;;;;;;;;;;5055577;28;20435;-72
2023/12/29 10:18:54;;;;;;;2.40;2.17;;;;;;;;;;5055532;28;20040;-73
2023/12/29 10:21:35;;;;;;;2.88;1.67;;;;;;;;;;5055790;28;20033;-72
2023/12/29 10:24:00;;;;;;;;;;;;;;;;;;5038359;28;20025;-72
2023/12/29 10:26:26;;;;;;;2.57;1.57;;;;;;;;;;5037659;28;20283;-72
2023/12/29 10:28:52;;;;;;;1.35;1.27;;;;;;;;;;5055329;28;20728;-72
2023/12/29 10:31:17;;;;;;;2.13;1.98;;;;;;;;;;5055651;28;20037;-72
2023/12/29 10:33:43;;;;;;;1.48;1.38;;;;;;;;;;5055531;28;20482;-72
2023/12/29 10:36:08;;;;;;;2.38;1.50;;;;;;;;;;5037360;28;20039;-72
2023/12/29 10:38:34;;;;;;;1.77;1.67;;;;;;;;;;5055237;28;20043;-72
2023/12/29 10:41:15;;;;;;;2.20;2.00;;;;;;;;;;5055435;28;20447;-72
2023/12/29 10:43:41;;;;;;;1.42;1.25;;;;;;;;;;5038093;28;20029;-72
2023/12/29 10:46:08;;;;;;;1.98;1.88;;;;;;;;;;5020665;28;20104;-72
2023/12/29 10:48:33;;;;;;;1.98;1.88;;;;;;;;;;5037058;28;20029;-72
2023/12/29 10:51:00;;;;;;;2.83;2.03;;;;;;;;;;5037042;28;20083;-72
2023/12/29 10:53:25;;;;;;;2.03;1.67;;;;;;;;;;5055477;28;20029;-72
2023/12/29 10:55:50;;;;;;;1.60;1.50;;;;;;;;;;5055117;28;20528;-72
2023/12/29 10:58:17;;;;;;;1.92;1.73;;;;;;;;;;5037021;28;20490;-72
2023/12/29 11:00:44;;;;;;;1.92;1.77;;;;;;;;;;5055008;28;20083;-72
2023/12/29 11:03:18;;;;;;;1.80;1.70;;;;;;;;;;5054717;28;20387;-72
2023/12/29 11:05:43;;;;;;;1.75;1.45;;;;;;;;;;5054558;28;20032;-72
2023/12/29 11:08:19;;;;;;;1.23;1.13;;;;;;;;;;5020231;28;20029;-72
2023/12/29 11:10:45;;;;;;;2.50;1.65;;;;;;;;;;5063202;28;20037;-72
2023/12/29 11:13:13;;;;;;;1.98;1.58;;;;;;;;;;5056603;28;20074;-72
2023/12/29 11:15:40;;;;;;;2.65;1.95;;;;;;;;;;5074434;28;20489;-73
2023/12/29 11:18:06;;;;;;;2.38;2.03;;;;;;;;;;5056491;28;20484;-72
2023/12/29 11:20:32;;;;;;;1.98;1.77;;;;;;;;;;5056440;28;20052;-72
2023/12/29 11:22:57;;;;;;;4.20;2.10;;;;;;;;;;5074872;28;20054;-72
2023/12/29 11:25:23;;;;;;;1.63;1.52;;;;;;;;;;5074729;28;20033;-72
2023/12/29 11:27:49;;;;;;;2.17;1.75;;;;;;;;;;5056311;28;20036;-72
2023/12/29 11:30:15;;;;;;;3.58;1.33;;;;;;;;;;5074215;28;20027;-72
2023/12/29 11:32:52;;;;;;;2.80;2.10;;;;;;;;;;5056171;28;20402;-72
2023/12/29 11:35:21;;;;;;;2.75;2.10;;;;;;;;;;5056467;28;20059;-72
2023/12/29 11:38:05;;;;;;;2.47;2.08;;;;;;;;;;5074055;28;20068;-72
2023/12/29 11:40:40;;;;;;;2.40;2.20;;;;;;;;;;5074248;28;20028;-72
2023/12/29 11:43:08;;;;;;;1.65;1.23;;;;;;;;;;5056072;28;20036;-72
2023/12/29 11:45:35;;;;;;;2.10;1.90;;;;;;;;;;5074155;28;20050;-72
2023/12/29 11:48:02;;;;;;;2.40;2.05;;;;;;;;;;5073695;28;20034;-72
2023/12/29 11:50:29;;;;;;;2.60;2.13;;;;;;;;;;5073893;28;20020;-71
2023/12/29 11:53:34;;;;;;;2.53;2.13;;;;;;;;;;5106093;22;20135;-64
2023/12/29 11:55:59;;;;;;;1.45;1.30;;;;;;;;;;5057596;23;20096;-72
2023/12/29 11:58:28;;;;;;;2.88;2.58;;;;;;;;;;5071053;22;20056;-65
2023/12/29 12:00:53;;;;;;;2.05;1.95;;;;;;;;;;5055772;28;20385;-64
2023/12/29 12:03:25;;;;;;;1.83;1.63;;;;;;;;;;5074042;28;20013;-65
2023/12/29 12:05:51;;;;;;;2.55;2.25;;;;;;;;;;5073623;28;20036;-64
2023/12/29 12:08:26;;;;;;;1.73;1.63;;;;;;;;;;5055747;28;20385;-64
2023/12/29 12:10:52;;;;;;;2.10;1.90;;;;;;;;;;5055646;28;20029;-64
2023/12/29 12:13:53;;;;;;;2.50;1.65;;;;;;;;;;5055698;28;20371;-64
2023/12/29 12:16:37;;;;;;;2.35;1.52;;;;;;;;;;4992487;28;20022;-64
2023/12/29 12:19:04;;;;;;;1.75;1.65;;;;;;;;;;5066576;28;20622;-72
2023/12/29 12:21:29;;;;;;;2.53;2.33;;;;;;;;;;5055604;28;20171;-72
2023/12/29 12:23:56;;;;;;;2.40;2.20;;;;;;;;;;5055688;28;20052;-72
2023/12/29 12:26:24;;;;;;;2.42;2.17;;;;;;;;;;5087126;22;20044;-71
2023/12/29 12:28:52;;;;;;;2.60;2.28;;;;;;;;;;5045666;22;1135948;-71
2023/12/29 12:31:18;;;;;;;2.30;2.17;;;;;;;;;;5073450;28;20102;-72
2023/12/29 12:33:52;;;;;;;3.20;2.42;;;;;;;;;;5073406;28;20058;-72
2023/12/29 12:36:18;;;;;;;3.28;2.80;;;;;;;;;;5073382;28;20031;-72
2023/12/29 12:38:51;;;;;;;3.97;3.22;;;;;;;;;;5073549;28;20032;-72
2023/12/29 12:41:17;;;;;;;4.15;2.67;;;;;;;;;;5055470;28;20028;-72
2023/12/29 12:43:45;;;;;;;2.13;1.92;;;;;;;;;;5073304;28;20028;-72
2023/12/29 12:46:10;;;;;;;3.05;2.63;;;;;;;;;;5055342;28;20028;-72
2023/12/29 12:48:41;;;;;;;3.55;2.58;;;;;;;;;;5055322;28;20420;-72
2023/12/29 12:51:07;;;;;;;4.22;2.47;;;;;;;;;;5055440;28;20033;-72
2023/12/29 12:53:32;;;;;;;2.28;2.10;;;;;;;;;;5055251;28;20024;-72
2023/12/29 12:55:58;;;;;;;2.80;1.98;;;;;;;;;;5055240;28;20111;-72
2023/12/29 12:58:23;;;;;;;4.13;2.55;;;;;;;;;;5055431;28;20060;-72
2023/12/29 13:00:49;;;;;;;1.33;0.95;;;;;;;;;;5076505;28;20021;-72
2023/12/29 13:03:15;;;;;;;2.00;1.90;;;;;;;;;;5077000;28;20039;-72
2023/12/29 13:05:40;;;;;;;0.95;0.93;;;;;;;;;;5076872;28;20403;-71
2023/12/29 13:08:06;;;;;;;1.63;1.33;;;;;;;;;;5076986;28;20111;-72
2023/12/29 13:10:31;;;;;;;2.30;2.10;;;;;;;;;;5076926;28;20031;-72
2023/12/29 13:12:57;;;;;;;2.75;1.77;;;;;;;;;;5076933;28;20028;-72
2023/12/29 13:15:23;;;;;;;3.03;1.90;;;;;;;;;;5076745;28;20096;-71
2023/12/29 13:17:55;;;;;;;2.35;1.95;;;;;;;;;;5076663;28;20036;-72
2023/12/29 13:20:20;;;;;;;1.83;1.73;;;;;;;;;;5058608;28;20510;-72
2023/12/29 13:22:47;;;;;;;2.97;2.30;;;;;;;;;;5075476;28;20024;-72
2023/12/29 13:25:17;;;;;;;3.22;2.10;;;;;;;;;;5076468;28;20033;-72
2023/12/29 13:27:43;;;;;;;1.85;1.63;;;;;;;;;;5076414;28;20041;-71
2023/12/29 13:30:08;;;;;;;2.33;1.75;;;;;;;;;;5076562;28;20158;-72
2023/12/29 13:32:38;;;;;;;2.83;2.03;;;;;;;;;;5058637;28;20517;-72
2023/12/29 13:35:16;;;;;;;3.88;2.17;;;;;;;;;;5058482;28;20036;-72
2023/12/29 13:38:00;;;;;;;2.08;1.90;;;;;;;;;;5058361;28;20032;-72
2023/12/29 13:40:28;;;;;;;2.03;1.85;;;;;;;;;;5058557;28;20028;-72
2023/12/29 13:42:57;;;;;;;1.30;1.20;;;;;;;;;;5076377;28;20532;-72
2023/12/29 13:45:22;;;;;;;2.55;2.22;;;;;;;;;;5076232;28;20046;-73
2023/12/29 13:47:48;;;;;;;2.85;2.63;;;;;;;;;;5058338;28;20087;-71
2023/12/29 13:50:43;;;;;;;2.50;2.00;;;;;;;;;;5076086;28;20032;-71
2023/12/29 13:53:09;;;;;;;4.03;2.40;;;;;;;;;;5075887;28;20488;-71
2023/12/29 13:55:36;;;;;;;3.05;2.33;;;;;;;;;;5076015;28;20103;-71
2023/12/29 13:58:08;;;;;;;3.58;2.85;;;;;;;;;;5057465;28;20032;-71
2023/12/29 14:00:37;;;;;;;2.95;2.33;;;;;;;;;;5064653;28;20463;-71
2023/12/29 14:03:05;;;;;;;3.63;2.63;;;;;;;;;;5064022;28;20032;-71
2023/12/29 14:05:39;;;;;;;4.13;2.92;;;;;;;;;;5064177;28;20076;-71
2023/12/29 14:08:08;;;;;;;3.85;3.25;;;;;;;;;;5046961;28;20049;-64
2023/12/29 14:10:34;;;;;;;5.40;3.67;;;;;;;;;;5054997;28;20375;-64
2023/12/29 14:13:07;;;;;;;4.82;3.80;;;;;;;;;;5055817;28;20485;-64
2023/12/29 14:15:38;;;;;;;7.95;4.35;;;;;;;;;;5055779;28;20040;-64
2023/12/29 14:18:08;;;;;;;2.42;2.22;;;;;;;;;;5055679;28;20029;-64
2023/12/29 14:20:34;;;;;;;4.33;3.40;;;;;;;;;;5055684;28;20540;-64
2023/12/29 14:23:06;;;;;;;2.60;2.33;;;;;;;;;;5037646;28;20036;-64
2023/12/29 14:25:37;;;;;;;2.58;2.38;;;;;;;;;;5055356;28;20036;-64
2023/12/29 14:28:03;;;;;;;3.20;1.98;;;;;;;;;;5055228;28;20483;-64
2023/12/29 14:30:31;;;;;;;3.28;2.50;;;;;;;;;;5055345;28;20119;-64
2023/12/29 14:32:59;;;;;;;2.28;2.08;;;;;;;;;;5055254;28;20060;-64
2023/12/29 14:35:25;;;;;;;5.25;3.53;;;;;;;;;;5037381;28;20025;-64
2023/12/29 14:37:50;;;;;;;6.10;3.85;;;;;;;;;;5055178;28;20037;-72
2023/12/29 14:40:16;;;;;;;4.72;3.45;;;;;;;;;;5055124;28;20081;-72
2023/12/29 14:42:41;;;;;;;5.50;3.35;;;;;;;;;;5055176;28;20037;-73
2023/12/29 14:45:07;;;;;;;4.18;2.95;;;;;;;;;;5028299;28;20107;-72
2023/12/29 14:47:33;;;;;;;5.43;3.58;;;;;;;;;;5034535;28;20120;-72